createdAt,value
2017-06-17T00:01:18.067Z,11.50
2017-06-17T00:03:47.744Z,11.40
2017-06-17T00:06:17.442Z,11.70
2017-06-17T00:08:47.448Z,11.40
2017-06-17T00:11:18.283Z,11.30
2017-06-17T00:13:47.961Z,11.30
2017-06-17T00:16:17.626Z,11.30
2017-06-17T00:18:47.295Z,11.30
2017-06-17T00:21:17.317Z,11.20
2017-06-17T00:23:47.072Z,11.20
2017-06-17T00:26:16.961Z,11.20
2017-06-17T00:28:47.117Z,11.20
2017-06-17T00:31:16.849Z,11.10
2017-06-17T00:33:46.566Z,11.10
2017-06-17T00:36:16.481Z,11.10
2017-06-17T00:38:46.433Z,11.10
2017-06-17T00:41:16.132Z,11.00
2017-06-17T00:43:47.068Z,11.00
2017-06-17T00:46:17.562Z,11.00
2017-06-17T00:48:47.225Z,10.90
2017-06-17T00:51:18.215Z,10.90
2017-06-17T00:53:47.918Z,10.90
2017-06-17T00:56:17.585Z,10.80
2017-06-17T00:58:48.310Z,10.80
2017-06-17T01:01:17.981Z,10.80
2017-06-17T01:03:48.425Z,10.80
2017-06-17T01:06:18.107Z,10.80
2017-06-17T01:08:48.150Z,10.80
2017-06-17T01:11:17.846Z,10.80
2017-06-17T01:13:47.538Z,10.80
2017-06-17T01:16:17.598Z,10.70
2017-06-17T01:18:47.465Z,10.70
2017-06-17T01:21:17.180Z,10.70
2017-06-17T01:23:46.857Z,10.70
2017-06-17T01:26:16.855Z,10.70
2017-06-17T01:28:47.875Z,10.70
2017-06-17T01:31:18.217Z,10.60
2017-06-17T01:33:47.902Z,10.60
2017-06-17T01:36:17.731Z,10.60
2017-06-17T01:38:48.062Z,10.60
2017-06-17T01:41:18.010Z,10.60
2017-06-17T01:43:48.057Z,10.60
2017-06-17T01:46:18.001Z,10.70
2017-06-17T01:48:47.918Z,10.70
2017-06-17T01:51:17.683Z,10.80
2017-06-17T01:53:47.467Z,10.90
2017-06-17T01:56:17.310Z,11.00
2017-06-17T01:58:46.974Z,11.10
2017-06-17T02:01:16.706Z,11.30
2017-06-17T02:03:46.407Z,11.40
2017-06-17T02:06:16.117Z,11.60
2017-06-17T02:08:45.817Z,11.70
2017-06-17T02:11:15.509Z,11.80
2017-06-17T02:13:45.217Z,11.90
2017-06-17T02:16:14.882Z,12.00
2017-06-17T02:18:44.558Z,12.10
2017-06-17T02:21:18.342Z,12.20
2017-06-17T02:23:48.050Z,12.30
2017-06-17T02:26:17.706Z,12.30
2017-06-17T02:28:47.442Z,12.40
2017-06-17T02:31:18.389Z,12.50
2017-06-17T02:33:48.104Z,12.50
2017-06-17T02:36:17.854Z,12.60
2017-06-17T02:38:47.614Z,12.60
2017-06-17T02:41:17.509Z,12.60
2017-06-17T02:43:47.226Z,12.60
2017-06-17T02:46:16.973Z,12.70
2017-06-17T02:48:46.678Z,12.80
2017-06-17T02:51:16.461Z,12.70
2017-06-17T02:53:46.214Z,12.80
2017-06-17T02:56:15.935Z,12.70
2017-06-17T02:58:45.623Z,12.60
2017-06-17T03:01:15.344Z,12.60
2017-06-17T03:03:45.110Z,12.70
2017-06-17T03:06:14.822Z,12.80
2017-06-17T03:08:44.606Z,12.80
2017-06-17T03:11:14.570Z,12.90
2017-06-17T03:13:44.401Z,12.90
2017-06-17T03:16:14.125Z,13.00
2017-06-17T03:18:43.842Z,13.10
2017-06-17T03:21:13.619Z,13.30
2017-06-17T03:23:43.338Z,13.40
2017-06-17T03:26:13.097Z,13.40
2017-06-17T03:28:43.569Z,13.40
2017-06-17T03:31:13.330Z,13.40
2017-06-17T03:33:43.229Z,13.50
2017-06-17T03:36:13.077Z,13.40
2017-06-17T03:38:42.778Z,13.30
2017-06-17T03:41:12.441Z,13.40
2017-06-17T03:43:42.130Z,13.50
2017-06-17T03:46:11.837Z,13.40
2017-06-17T03:48:41.541Z,13.50
2017-06-17T03:51:11.249Z,13.50
2017-06-17T03:53:40.917Z,13.50
2017-06-17T03:56:10.586Z,13.60
2017-06-17T03:58:40.258Z,13.70
2017-06-17T04:01:09.942Z,13.80
2017-06-17T04:03:39.609Z,13.80
2017-06-17T04:06:09.310Z,13.90
2017-06-17T04:08:38.994Z,14.10
2017-06-17T04:11:08.704Z,14.10
2017-06-17T04:13:38.421Z,14.10
2017-06-17T04:16:08.142Z,14.20
2017-06-17T04:18:37.797Z,14.30
2017-06-17T04:21:07.514Z,14.30
2017-06-17T04:23:37.252Z,14.20
2017-06-17T04:26:06.925Z,14.30
2017-06-17T04:28:36.700Z,14.20
2017-06-17T04:31:06.366Z,14.30
2017-06-17T04:33:36.037Z,14.30
2017-06-17T04:36:05.737Z,14.40
2017-06-17T04:38:35.418Z,14.50
2017-06-17T04:41:05.769Z,14.60
2017-06-17T04:43:37.516Z,14.80
2017-06-17T04:46:09.230Z,14.80
2017-06-17T04:48:38.958Z,14.80
2017-06-17T04:51:08.690Z,14.70
2017-06-17T04:53:39.659Z,14.70
2017-06-17T04:56:09.569Z,14.70
2017-06-17T04:58:40.899Z,14.70
2017-06-17T05:01:11.851Z,14.70
2017-06-17T05:03:42.519Z,14.70
2017-06-17T05:06:13.961Z,14.70
2017-06-17T05:08:45.073Z,14.80
2017-06-17T05:11:15.173Z,15.00
2017-06-17T05:13:45.162Z,15.00
2017-06-17T05:16:21.065Z,15.00
2017-06-17T05:18:50.804Z,15.00
2017-06-17T05:21:22.242Z,15.00
2017-06-17T05:23:53.207Z,15.00
2017-06-17T05:26:27.355Z,15.10
2017-06-17T05:28:58.541Z,15.00
2017-06-17T05:31:28.764Z,15.00
2017-06-17T05:34:00.641Z,14.90
2017-06-17T05:36:30.918Z,14.90
2017-06-17T05:39:03.654Z,14.90
2017-06-17T05:41:37.307Z,14.90
2017-06-17T05:44:09.800Z,14.90
2017-06-17T05:46:42.851Z,15.10
2017-06-17T05:49:15.094Z,14.70
2017-06-17T05:51:44.965Z,15.20
2017-06-17T05:54:16.830Z,15.20
2017-06-17T05:56:47.457Z,15.20
2017-06-17T05:59:17.402Z,15.30
2017-06-17T06:01:48.628Z,15.30
2017-06-17T06:04:18.950Z,15.40
2017-06-17T06:06:51.191Z,15.30
2017-06-17T06:09:21.043Z,15.30
2017-06-17T06:11:51.451Z,15.30
2017-06-17T06:14:21.439Z,15.20
2017-06-17T06:16:51.110Z,15.20
2017-06-17T06:19:20.777Z,15.20
2017-06-17T06:21:50.857Z,15.30
2017-06-17T06:24:21.438Z,15.10
2017-06-17T06:26:51.841Z,15.20
2017-06-17T06:29:21.534Z,15.30
2017-06-17T06:31:51.263Z,15.50
2017-06-17T06:34:21.350Z,15.60
2017-06-17T06:36:51.741Z,15.80
2017-06-17T06:39:21.446Z,15.90
2017-06-17T06:41:51.830Z,15.90
2017-06-17T06:44:22.485Z,16.00
2017-06-17T06:46:52.784Z,16.00
2017-06-17T06:49:22.582Z,16.00
2017-06-17T06:51:52.719Z,16.00
2017-06-17T06:54:22.704Z,16.20
2017-06-17T06:56:52.509Z,16.20
2017-06-17T06:59:22.304Z,16.10
2017-06-17T07:01:52.918Z,16.00
2017-06-17T07:04:22.611Z,16.00
2017-06-17T07:06:52.313Z,16.00
2017-06-17T07:09:22.006Z,16.10
2017-06-17T07:11:51.789Z,16.10
2017-06-17T07:14:21.534Z,16.10
2017-06-17T07:16:51.215Z,16.00
2017-06-17T07:19:20.902Z,16.00
2017-06-17T07:21:50.642Z,16.20
2017-06-17T07:24:20.333Z,16.10
2017-06-17T07:26:50.086Z,16.30
2017-06-17T07:29:19.842Z,16.40
2017-06-17T07:31:49.578Z,16.40
2017-06-17T07:34:19.286Z,16.60
2017-06-17T07:36:54.191Z,17.10
2017-06-17T07:39:24.805Z,17.20
2017-06-17T07:41:54.621Z,17.10
2017-06-17T07:44:24.362Z,16.70
2017-06-17T07:46:54.053Z,16.70
2017-06-17T07:49:23.954Z,16.80
2017-06-17T07:51:53.669Z,17.00
2017-06-17T07:54:23.351Z,16.90
2017-06-17T07:56:53.019Z,17.00
2017-06-17T07:59:22.710Z,17.20
2017-06-17T08:01:52.622Z,17.20
2017-06-17T08:04:22.317Z,17.00
2017-06-17T08:06:52.003Z,17.20
2017-06-17T08:09:21.774Z,17.10
2017-06-17T08:11:51.562Z,17.10
2017-06-17T08:14:21.301Z,16.80
2017-06-17T08:16:51.018Z,17.10
2017-06-17T08:19:20.699Z,17.30
2017-06-17T08:21:50.369Z,17.30
2017-06-17T08:24:20.333Z,17.40
2017-06-17T08:26:50.053Z,17.60
2017-06-17T08:29:19.819Z,17.60
2017-06-17T08:31:49.489Z,17.70
2017-06-17T08:34:19.195Z,17.80
2017-06-17T08:36:49.066Z,18.00
2017-06-17T08:39:18.846Z,18.50
2017-06-17T08:41:48.521Z,18.90
2017-06-17T08:44:18.261Z,19.10
2017-06-17T08:46:47.958Z,19.50
2017-06-17T08:49:17.631Z,19.80
2017-06-17T08:51:48.489Z,19.40
2017-06-17T08:54:18.229Z,19.20
2017-06-17T08:56:48.022Z,19.00
2017-06-17T08:59:17.815Z,18.80
2017-06-17T09:01:48.107Z,19.00
2017-06-17T09:04:18.222Z,19.00
2017-06-17T09:06:47.886Z,18.80
2017-06-17T09:09:18.050Z,18.60
2017-06-17T09:11:48.302Z,18.70
2017-06-17T09:14:18.037Z,18.60
2017-06-17T09:16:47.802Z,19.00
2017-06-17T09:19:17.475Z,18.80
2017-06-17T09:21:47.543Z,18.70
2017-06-17T09:24:17.214Z,18.60
2017-06-17T09:26:47.454Z,18.80
2017-06-17T09:29:17.195Z,19.00
2017-06-17T09:31:47.962Z,19.40
2017-06-17T09:34:17.734Z,19.60
2017-06-17T09:36:47.686Z,20.00
2017-06-17T09:39:17.782Z,20.10
2017-06-17T09:41:48.453Z,20.30
2017-06-17T09:44:20.219Z,20.50
2017-06-17T09:46:50.676Z,20.10
2017-06-17T09:49:20.434Z,20.00
2017-06-17T09:51:51.045Z,20.20
2017-06-17T09:54:20.853Z,20.00
2017-06-17T09:56:50.872Z,19.90
2017-06-17T09:59:20.545Z,20.30
2017-06-17T10:01:50.242Z,20.70
2017-06-17T10:04:19.923Z,20.50
2017-06-17T10:06:49.593Z,20.50
2017-06-17T10:09:19.257Z,20.60
2017-06-17T10:11:49.330Z,20.40
2017-06-17T10:14:19.006Z,20.30
2017-06-17T10:16:48.678Z,20.40
2017-06-17T10:19:18.357Z,20.80
2017-06-17T10:21:48.302Z,21.50
2017-06-17T10:24:17.970Z,22.10
2017-06-17T10:26:48.031Z,22.20
2017-06-17T10:29:17.702Z,22.50
2017-06-17T10:31:47.382Z,22.50
2017-06-17T10:34:17.062Z,22.30
2017-06-17T10:36:47.230Z,22.40
2017-06-17T10:39:16.914Z,22.00
2017-06-17T11:26:46.382Z,21.60
2017-06-17T11:29:16.034Z,21.10
2017-06-17T11:31:46.280Z,21.10
2017-06-17T11:34:16.034Z,21.20
2017-06-17T11:36:46.212Z,21.20
2017-06-17T11:39:15.858Z,21.20
2017-06-17T11:41:45.857Z,21.30
2017-06-17T11:44:15.486Z,21.30
2017-06-17T11:46:46.092Z,21.30
2017-06-17T11:49:16.381Z,21.20
2017-06-17T11:51:46.361Z,20.90
2017-06-17T11:54:20.372Z,21.20
2017-06-17T11:56:50.492Z,21.40
2017-06-17T11:59:20.268Z,21.30
2017-06-17T12:01:50.072Z,21.20
2017-06-17T12:04:20.081Z,21.30
2017-06-17T12:06:49.857Z,21.40
2017-06-17T12:09:19.505Z,21.70
2017-06-17T12:11:49.277Z,21.40
2017-06-17T12:14:18.912Z,21.20
2017-06-17T12:16:48.721Z,21.40
2017-06-17T12:19:18.385Z,21.70
2017-06-17T12:21:48.167Z,21.90
2017-06-17T12:24:17.808Z,21.90
2017-06-17T12:26:48.203Z,21.90
2017-06-17T12:29:18.149Z,21.90
2017-06-17T12:31:48.848Z,21.40
2017-06-17T12:34:19.196Z,21.40
2017-06-17T12:36:50.273Z,21.50
2017-06-17T12:39:20.117Z,21.40
2017-06-17T12:41:49.930Z,21.50
2017-06-17T12:44:20.493Z,21.60
2017-06-17T12:46:51.925Z,22.10
2017-06-17T12:49:21.566Z,22.10
2017-06-17T12:51:51.556Z,22.30
2017-06-17T12:54:21.653Z,22.40
2017-06-17T12:56:52.851Z,22.40
2017-06-17T12:59:22.522Z,22.00
2017-06-17T13:01:52.436Z,22.20
2017-06-17T13:04:22.870Z,22.20
2017-06-17T13:06:53.510Z,22.50
2017-06-17T13:09:23.155Z,22.60
2017-06-17T13:11:52.998Z,22.80
2017-06-17T13:14:23.161Z,22.70
2017-06-17T13:16:53.078Z,22.60
2017-06-17T13:19:22.742Z,22.70
2017-06-17T13:21:52.564Z,22.20
2017-06-17T13:24:22.688Z,22.30
2017-06-17T13:26:52.465Z,22.90
2017-06-17T13:29:22.102Z,23.70
2017-06-17T13:31:52.842Z,24.30
2017-06-17T13:34:23.992Z,24.70
2017-06-17T13:36:54.086Z,24.50
2017-06-17T13:39:23.892Z,24.10
2017-06-17T13:41:54.293Z,24.00
2017-06-17T13:44:24.469Z,24.10
2017-06-17T13:46:54.487Z,24.80
2017-06-17T13:49:24.408Z,25.40
2017-06-17T13:51:54.201Z,25.70
2017-06-17T13:54:24.721Z,26.10
2017-06-17T13:56:55.493Z,26.70
2017-06-17T13:59:25.289Z,27.80
2017-06-17T14:01:55.089Z,28.40
2017-06-17T14:04:25.254Z,28.50
2017-06-17T14:06:55.261Z,28.60
2017-06-17T14:09:26.173Z,29.20
2017-06-17T14:11:55.977Z,29.10
2017-06-17T14:14:28.248Z,29.20
2017-06-17T14:16:59.014Z,29.00
2017-06-17T14:19:30.137Z,29.00
2017-06-17T14:22:04.386Z,28.90
2017-06-17T14:24:34.678Z,29.10
2017-06-17T14:27:04.964Z,28.90
2017-06-17T14:29:34.829Z,27.80
2017-06-17T14:32:05.349Z,27.10
2017-06-17T14:34:35.355Z,26.70
2017-06-17T14:37:05.402Z,26.40
2017-06-17T14:39:35.494Z,26.10
2017-06-17T14:42:05.368Z,25.70
2017-06-17T14:44:35.277Z,25.30
2017-06-17T14:47:05.541Z,25.30
2017-06-17T14:49:35.272Z,25.70
2017-06-17T14:52:05.225Z,26.20
2017-06-17T14:54:35.281Z,26.40
2017-06-17T14:57:05.261Z,26.60
2017-06-17T14:59:35.306Z,26.80
2017-06-17T15:02:05.086Z,26.60
2017-06-17T15:04:35.059Z,26.30
2017-06-17T15:07:05.706Z,25.70
2017-06-17T15:09:38.387Z,25.70
2017-06-17T15:12:08.129Z,25.80
2017-06-17T15:14:39.833Z,25.80
2017-06-17T15:17:10.211Z,25.40
2017-06-17T15:19:42.131Z,25.30
2017-06-17T15:22:11.989Z,25.80
2017-06-17T15:24:41.949Z,26.30
2017-06-17T15:27:11.745Z,26.60
2017-06-17T15:29:42.429Z,26.10
2017-06-17T15:32:12.436Z,26.30
2017-06-17T15:34:42.224Z,26.60
2017-06-17T15:37:13.158Z,26.00
2017-06-17T15:39:43.246Z,26.00
2017-06-17T15:42:12.911Z,25.90
2017-06-17T15:44:42.914Z,25.70
2017-06-17T15:47:14.648Z,26.10
2017-06-17T15:49:44.442Z,26.40
2017-06-17T15:52:14.109Z,26.50
2017-06-17T15:54:44.716Z,25.50
2017-06-17T15:57:14.848Z,25.10
2017-06-17T15:59:45.664Z,24.60
2017-06-17T16:02:15.798Z,24.60
2017-06-17T16:04:45.890Z,24.80
2017-06-17T16:07:15.553Z,24.80
2017-06-17T16:09:46.393Z,25.00
2017-06-17T16:12:16.062Z,25.10
2017-06-17T16:14:45.867Z,25.30
2017-06-17T16:17:15.769Z,25.30
2017-06-17T16:19:46.029Z,25.00
2017-06-17T16:22:15.453Z,24.30
2017-06-17T16:24:45.603Z,23.70
2017-06-17T16:27:14.939Z,23.40
2017-06-17T16:29:44.903Z,23.10
2017-06-17T16:32:15.707Z,22.70
2017-06-17T16:34:45.495Z,22.50
2017-06-17T16:37:14.887Z,22.50
2017-06-17T16:39:44.499Z,22.40
2017-06-17T16:42:15.022Z,22.90
2017-06-17T16:44:44.944Z,22.90
2017-06-17T16:47:14.983Z,23.10
2017-06-17T16:49:44.769Z,23.20
2017-06-17T16:52:14.444Z,22.90
2017-06-17T16:54:45.290Z,22.90
2017-06-17T16:57:15.483Z,22.90
2017-06-17T16:59:45.369Z,22.80
2017-06-17T17:02:15.027Z,22.90
2017-06-17T17:04:45.133Z,22.60
2017-06-17T17:07:16.162Z,22.60
2017-06-17T17:09:46.142Z,22.60
2017-06-17T17:12:15.797Z,22.40
2017-06-17T17:14:45.627Z,22.40
2017-06-17T17:17:15.989Z,22.40
2017-06-17T17:19:46.438Z,22.20
2017-06-17T17:22:16.878Z,22.20
2017-06-17T17:24:48.405Z,22.30
2017-06-17T17:27:20.199Z,22.50
2017-06-17T17:29:50.399Z,22.50
2017-06-17T17:32:21.195Z,22.50
2017-06-17T17:34:51.599Z,22.50
2017-06-17T17:37:22.173Z,22.70
2017-06-17T17:39:51.999Z,22.60
2017-06-17T17:42:21.969Z,22.50
2017-06-17T17:44:51.815Z,22.40
2017-06-17T17:47:22.033Z,22.30
2017-06-17T17:49:52.258Z,22.30
2017-06-17T17:52:21.938Z,22.30
2017-06-17T17:54:52.601Z,22.10
2017-06-17T17:57:22.539Z,21.90
2017-06-17T17:59:53.336Z,22.10
2017-06-17T18:02:23.443Z,22.10
2017-06-17T18:04:54.718Z,22.20
2017-06-17T18:07:24.903Z,22.30
2017-06-17T18:09:54.862Z,22.20
2017-06-17T18:12:26.242Z,22.40
2017-06-17T18:14:56.074Z,22.40
2017-06-17T18:17:25.761Z,22.40
2017-06-17T18:19:55.823Z,22.40
2017-06-17T18:22:25.494Z,22.40
2017-06-17T18:24:55.303Z,22.40
2017-06-17T18:27:25.405Z,22.30
2017-06-17T18:29:55.982Z,22.30
2017-06-17T18:32:25.663Z,22.30
2017-06-17T18:34:56.047Z,22.30
2017-06-17T18:37:27.750Z,22.30
2017-06-17T18:39:57.961Z,22.20
2017-06-17T18:42:27.961Z,22.10
2017-06-17T18:44:58.973Z,22.00
2017-06-17T18:47:28.821Z,21.90
2017-06-17T18:49:58.619Z,21.90
2017-06-17T18:52:28.306Z,21.90
2017-06-17T18:54:58.308Z,21.90
2017-06-17T18:57:28.372Z,21.90
2017-06-17T19:00:00.271Z,22.00
2017-06-17T19:02:30.157Z,22.00
2017-06-17T19:05:00.539Z,21.90
2017-06-17T19:07:30.922Z,21.90
2017-06-17T19:10:00.803Z,21.80
2017-06-17T19:12:31.536Z,21.70
2017-06-17T19:15:02.262Z,21.70
2017-06-17T19:17:31.928Z,21.70
2017-06-17T19:20:02.735Z,21.70
2017-06-17T19:22:32.426Z,21.60
2017-06-17T19:25:02.327Z,21.50
2017-06-17T19:27:32.078Z,21.40
2017-06-17T19:30:02.147Z,21.40
2017-06-17T19:32:32.001Z,21.40
2017-06-17T19:35:02.190Z,21.50
2017-06-17T19:37:31.903Z,21.40
2017-06-17T19:40:01.881Z,21.40
2017-06-17T19:42:31.549Z,21.40
2017-06-17T19:45:01.722Z,21.40
2017-06-17T19:47:31.381Z,21.40
2017-06-17T19:50:01.982Z,21.40
2017-06-17T19:52:31.632Z,21.30
2017-06-17T19:55:01.761Z,21.30
2017-06-17T19:57:31.393Z,21.20
2017-06-17T20:00:01.997Z,21.20
2017-06-17T20:02:31.975Z,21.20
2017-06-17T20:05:01.766Z,21.00
2017-06-17T20:07:31.413Z,20.90
2017-06-17T20:10:03.437Z,20.80
2017-06-17T20:12:33.109Z,20.80
2017-06-17T20:15:03.242Z,20.80
2017-06-17T20:17:32.933Z,20.70
2017-06-17T20:20:05.499Z,20.70
2017-06-17T20:22:40.434Z,20.70
2017-06-17T20:25:10.399Z,20.70
2017-06-17T20:27:40.053Z,20.70
2017-06-17T20:30:09.869Z,20.70
2017-06-17T20:32:39.510Z,20.70
2017-06-17T20:35:10.062Z,20.70
2017-06-17T20:37:39.718Z,20.70
2017-06-17T20:40:09.691Z,20.70
2017-06-17T20:42:39.342Z,20.70
2017-06-17T20:45:10.360Z,20.60
2017-06-17T20:47:40.057Z,20.50
2017-06-17T20:50:11.516Z,20.40
2017-06-17T20:52:42.349Z,20.50
2017-06-17T20:55:12.241Z,20.50
2017-06-17T20:57:42.161Z,20.50
2017-06-17T21:00:13.750Z,20.50
2017-06-17T21:02:43.988Z,20.50
2017-06-17T21:05:14.561Z,20.40
2017-06-17T21:07:44.523Z,20.40
2017-06-17T21:10:15.430Z,20.40
2017-06-17T21:12:46.622Z,20.40
2017-06-17T21:15:16.679Z,20.40
2017-06-17T21:17:47.790Z,20.40
2017-06-17T21:20:18.471Z,20.40
2017-06-17T21:22:48.204Z,20.40
2017-06-17T21:25:19.600Z,20.40
2017-06-17T21:27:50.942Z,20.40
2017-06-17T21:30:21.961Z,20.40
2017-06-17T21:32:51.959Z,20.30
2017-06-17T21:35:23.086Z,20.20
2017-06-17T21:37:52.949Z,20.20
2017-06-17T21:40:23.341Z,20.20
2017-06-17T21:42:53.808Z,20.20
2017-06-17T21:45:24.067Z,20.30
2017-06-17T21:47:55.045Z,20.30
2017-06-17T21:50:25.395Z,20.30
2017-06-17T21:52:56.600Z,20.30
2017-06-17T21:55:26.394Z,20.30
2017-06-17T21:57:56.486Z,20.30
2017-06-17T22:00:26.794Z,20.30
2017-06-17T22:02:57.306Z,20.20
2017-06-17T22:05:27.163Z,20.20
2017-06-17T22:07:57.661Z,20.20
2017-06-17T22:10:27.525Z,20.20
2017-06-17T22:12:57.365Z,20.10
2017-06-17T22:15:27.559Z,20.10
2017-06-17T22:17:57.493Z,20.00
2017-06-17T22:20:28.327Z,20.10
2017-06-17T22:22:58.357Z,20.10
2017-06-17T22:25:28.313Z,20.10
2017-06-17T22:27:58.645Z,20.10
2017-06-17T22:30:28.718Z,20.10
2017-06-17T22:32:58.369Z,20.10
2017-06-17T22:35:28.295Z,20.10
2017-06-17T22:37:58.237Z,20.10
2017-06-17T22:40:27.982Z,20.00
2017-06-17T22:42:57.947Z,20.00
2017-06-17T22:45:27.866Z,20.00
2017-06-17T22:47:57.864Z,20.00
2017-06-17T22:50:27.677Z,19.90
2017-06-17T22:52:57.308Z,19.70
2017-06-17T22:55:27.102Z,19.60
2017-06-17T22:57:57.094Z,19.60
2017-06-17T23:00:26.941Z,19.50
2017-06-17T23:02:56.845Z,19.60
2017-06-17T23:05:26.533Z,19.50
2017-06-17T23:07:56.681Z,19.60
2017-06-17T23:10:26.393Z,19.60
2017-06-17T23:12:56.203Z,19.60
2017-06-17T23:15:26.219Z,19.50
2017-06-17T23:17:55.856Z,19.50
2017-06-17T23:20:25.847Z,19.50
2017-06-17T23:23:15.446Z,19.50
2017-06-17T23:25:45.242Z,19.50
2017-06-17T23:28:14.881Z,19.60
2017-06-17T23:30:45.114Z,19.60
2017-06-17T23:33:14.945Z,19.60
2017-06-17T23:35:44.973Z,19.50
2017-06-17T23:38:14.695Z,19.50
2017-06-17T23:40:44.370Z,19.10
2017-06-17T23:43:14.325Z,19.40
2017-06-17T23:45:44.753Z,19.40
2017-06-17T23:48:14.557Z,19.40
2017-06-17T23:50:44.395Z,19.40
2017-06-17T23:53:14.197Z,19.10
2017-06-17T23:55:45.206Z,19.30
2017-06-17T23:58:14.908Z,19.20
